createdAt,value
2018-12-07T00:00:26.795Z,34.57
2018-12-07T00:02:55.155Z,33.70
2018-12-07T00:05:23.531Z,31.80
2018-12-07T00:07:51.860Z,28.73
2018-12-07T00:10:20.239Z,28.40
2018-12-07T00:12:48.580Z,29.33
2018-12-07T00:15:16.959Z,30.70
2018-12-07T00:17:45.307Z,27.03
2018-12-07T00:20:13.804Z,27.13
2018-12-07T00:22:42.142Z,30.53
2018-12-07T00:25:10.639Z,28.07
2018-12-07T00:27:38.998Z,29.43
2018-12-07T00:30:07.661Z,29.20
2018-12-07T00:32:36.028Z,29.63
2018-12-07T00:35:05.429Z,27.27
2018-12-07T00:37:34.280Z,25.63
2018-12-07T00:40:02.666Z,22.13
2018-12-07T00:42:31.055Z,22.67
2018-12-07T00:44:59.428Z,21.37
2018-12-07T00:47:27.818Z,21.83
2018-12-07T00:49:56.179Z,22.03
2018-12-07T00:52:24.599Z,20.27
2018-12-07T00:54:53.006Z,21.20
2018-12-07T00:57:21.428Z,20.20
2018-12-07T00:59:49.801Z,21.00
2018-12-07T01:02:18.203Z,20.37
2018-12-07T01:04:46.567Z,17.67
2018-12-07T01:07:14.930Z,17.33
2018-12-07T01:09:43.280Z,18.67
2018-12-07T01:12:11.663Z,12.23
2018-12-07T01:14:40.031Z,11.30
2018-12-07T01:17:08.430Z,12.37
2018-12-07T01:19:36.775Z,12.23
2018-12-07T01:22:05.147Z,13.07
2018-12-07T01:24:33.514Z,12.57
2018-12-07T01:27:01.911Z,13.13
2018-12-07T01:29:30.269Z,13.33
2018-12-07T01:31:58.651Z,14.63
2018-12-07T01:34:27.011Z,16.43
2018-12-07T01:36:55.491Z,16.37
2018-12-07T01:39:23.851Z,16.73
2018-12-07T01:41:52.208Z,14.40
2018-12-07T01:44:20.583Z,13.27
2018-12-07T01:46:48.983Z,11.50
2018-12-07T01:49:18.456Z,9.67
2018-12-07T01:51:47.035Z,9.80
2018-12-07T01:54:15.407Z,9.57
2018-12-07T01:56:43.759Z,9.40
2018-12-07T01:59:12.139Z,9.83
2018-12-07T02:01:40.499Z,9.87
2018-12-07T02:04:08.862Z,9.87
2018-12-07T02:06:37.232Z,8.90
2018-12-07T02:09:07.679Z,10.70
2018-12-07T02:11:36.469Z,10.20
2018-12-07T02:14:05.070Z,10.27
2018-12-07T02:16:33.439Z,8.43
2018-12-07T02:19:01.815Z,9.57
2018-12-07T02:21:30.264Z,9.07
2018-12-07T02:23:58.640Z,9.63
2018-12-07T02:26:27.039Z,10.00
2018-12-07T02:28:55.376Z,9.40
2018-12-07T02:31:23.792Z,10.00
2018-12-07T02:33:52.171Z,11.07
2018-12-07T02:36:20.550Z,10.10
2018-12-07T02:38:48.919Z,10.27
2018-12-07T02:41:17.315Z,10.53
2018-12-07T02:43:45.766Z,10.20
2018-12-07T02:46:14.148Z,10.73
2018-12-07T02:48:42.763Z,10.33
2018-12-07T02:51:11.169Z,9.83
2018-12-07T02:53:39.546Z,9.57
2018-12-07T02:56:07.915Z,9.87
2018-12-07T02:58:36.308Z,11.20
2018-12-07T03:01:04.698Z,10.33
2018-12-07T03:03:33.090Z,10.07
2018-12-07T03:06:01.455Z,8.73
2018-12-07T03:08:29.810Z,8.40
2018-12-07T03:10:58.191Z,9.20
2018-12-07T03:13:26.569Z,9.47
2018-12-07T03:15:54.946Z,8.97
2018-12-07T03:18:30.331Z,8.83
2018-12-07T03:20:58.977Z,8.40
2018-12-07T03:23:28.006Z,9.40
2018-12-07T03:25:56.409Z,8.93
2018-12-07T03:28:24.755Z,9.60
2018-12-07T03:30:53.232Z,9.57
2018-12-07T03:33:21.751Z,10.17
2018-12-07T03:35:50.233Z,10.93
2018-12-07T03:38:18.587Z,11.60
2018-12-07T03:40:46.960Z,13.03
2018-12-07T03:43:15.458Z,15.17
2018-12-07T03:45:43.811Z,15.40
2018-12-07T03:48:12.206Z,14.73
2018-12-07T03:50:40.561Z,15.30
2018-12-07T03:53:08.926Z,16.23
2018-12-07T03:55:37.304Z,15.87
2018-12-07T03:58:05.718Z,17.80
2018-12-07T04:00:34.090Z,17.40
2018-12-07T04:03:02.491Z,18.60
2018-12-07T04:05:30.973Z,18.50
2018-12-07T04:07:59.463Z,17.60
2018-12-07T04:10:27.842Z,18.77
2018-12-07T04:12:56.200Z,18.53
2018-12-07T04:15:24.568Z,19.67
2018-12-07T04:17:52.927Z,17.97
2018-12-07T04:20:21.277Z,19.67
2018-12-07T04:22:49.635Z,18.77
2018-12-07T04:25:18.027Z,20.00
2018-12-07T04:27:46.412Z,18.63
2018-12-07T04:30:27.403Z,18.97
2018-12-07T04:32:55.769Z,17.73
2018-12-07T04:35:24.161Z,18.37
2018-12-07T04:37:52.550Z,19.47
2018-12-07T04:40:20.921Z,18.17
2018-12-07T04:42:49.503Z,19.50
2018-12-07T04:45:18.177Z,18.17
2018-12-07T04:47:46.671Z,19.67
2018-12-07T04:50:15.162Z,18.63
2018-12-07T04:52:43.560Z,19.17
2018-12-07T04:55:11.916Z,19.23
2018-12-07T04:57:40.339Z,18.80
2018-12-07T05:00:08.982Z,18.70
2018-12-07T05:02:37.392Z,19.20
2018-12-07T05:05:05.882Z,19.87
2018-12-07T05:07:34.258Z,19.83
2018-12-07T05:10:02.897Z,21.07
2018-12-07T05:12:31.280Z,20.07
2018-12-07T05:14:59.982Z,19.73
2018-12-07T05:17:28.360Z,21.03
2018-12-07T05:19:56.819Z,19.97
2018-12-07T05:22:25.315Z,20.67
2018-12-07T05:24:53.702Z,20.90
2018-12-07T05:27:22.120Z,20.20
2018-12-07T05:29:50.682Z,20.63
2018-12-07T05:32:19.075Z,21.80
2018-12-07T05:34:47.440Z,22.10
2018-12-07T05:37:15.816Z,21.67
2018-12-07T05:39:44.312Z,20.30
2018-12-07T05:42:12.712Z,21.33
2018-12-07T05:44:41.104Z,22.70
2018-12-07T05:47:09.488Z,21.47
2018-12-07T05:49:37.883Z,24.10
2018-12-07T05:52:06.259Z,22.37
2018-12-07T05:54:34.651Z,22.67
2018-12-07T05:57:03.070Z,22.83
2018-12-07T05:59:31.455Z,22.77
2018-12-07T06:01:59.830Z,23.03
2018-12-07T06:04:28.179Z,22.93
2018-12-07T06:06:56.596Z,19.70
2018-12-07T06:09:24.940Z,20.10
2018-12-07T06:11:55.028Z,19.50
2018-12-07T06:14:23.688Z,19.80
2018-12-07T06:16:52.055Z,17.90
2018-12-07T06:19:21.097Z,17.90
2018-12-07T06:21:49.627Z,16.60
2018-12-07T06:24:18.114Z,16.00
2018-12-07T06:26:46.615Z,15.37
2018-12-07T06:29:15.144Z,14.80
2018-12-07T06:31:44.016Z,17.57
2018-12-07T06:34:14.303Z,17.13
2018-12-07T06:36:42.840Z,15.37
2018-12-07T06:39:12.045Z,15.47
2018-12-07T06:41:40.440Z,15.73
2018-12-07T06:44:08.916Z,15.13
2018-12-07T06:46:37.251Z,16.50
2018-12-07T06:49:11.253Z,16.97
2018-12-07T06:51:40.887Z,14.07
2018-12-07T06:54:09.288Z,15.47
2018-12-07T06:56:37.664Z,15.30
2018-12-07T06:59:06.205Z,15.37
2018-12-07T07:01:34.686Z,13.60
2018-12-07T07:04:03.168Z,14.83
2018-12-07T07:06:31.671Z,12.60
2018-12-07T07:09:00.119Z,12.43
2018-12-07T07:11:28.512Z,11.93
2018-12-07T07:13:56.951Z,13.27
2018-12-07T07:16:25.332Z,13.10
2018-12-07T07:18:53.731Z,11.50
2018-12-07T07:21:22.322Z,11.97
2018-12-07T07:23:50.823Z,12.37
2018-12-07T07:26:19.573Z,11.80
2018-12-07T07:28:47.959Z,12.33
2018-12-07T07:31:16.500Z,12.13
2018-12-07T07:33:45.302Z,12.63
2018-12-07T07:36:15.100Z,13.83
2018-12-07T07:38:44.177Z,12.30
2018-12-07T07:41:12.602Z,13.10
2018-12-07T07:43:40.977Z,12.57
2018-12-07T07:46:09.523Z,11.97
2018-12-07T07:48:37.908Z,11.20
2018-12-07T07:51:06.425Z,12.17
2018-12-07T07:53:34.832Z,11.23
2018-12-07T07:56:03.220Z,12.40
2018-12-07T07:58:31.665Z,10.63
2018-12-07T08:01:00.039Z,11.03
2018-12-07T08:03:28.417Z,11.60
2018-12-07T08:05:56.828Z,10.67
2018-12-07T08:08:25.239Z,10.20
2018-12-07T08:10:53.641Z,10.30
2018-12-07T08:13:22.164Z,10.17
2018-12-07T08:15:50.551Z,10.07
2018-12-07T08:18:18.929Z,9.17
2018-12-07T08:20:47.419Z,10.70
2018-12-07T08:23:15.796Z,9.40
2018-12-07T08:25:44.212Z,10.07
2018-12-07T08:28:12.688Z,10.87
2018-12-07T08:30:41.049Z,10.17
2018-12-07T08:33:09.448Z,11.07
2018-12-07T08:35:37.794Z,10.93
2018-12-07T08:38:06.276Z,9.73
2018-12-07T08:40:34.643Z,10.97
2018-12-07T08:43:03.050Z,11.73
2018-12-07T08:45:31.798Z,12.13
2018-12-07T08:48:00.273Z,11.20
2018-12-07T08:50:28.861Z,10.40
2018-12-07T08:52:57.237Z,10.90
2018-12-07T08:55:25.668Z,10.63
2018-12-07T09:00:27.881Z,10.50
2018-12-07T09:02:56.326Z,10.07
2018-12-07T09:05:24.687Z,10.60
2018-12-07T09:07:53.206Z,9.90
2018-12-07T09:10:21.687Z,10.93
2018-12-07T09:12:50.078Z,11.00
2018-12-07T09:15:18.475Z,10.70
2018-12-07T09:17:48.743Z,11.57
2018-12-07T09:20:17.318Z,10.53
2018-12-07T09:22:45.720Z,10.13
2018-12-07T09:25:14.079Z,9.80
2018-12-07T09:27:42.483Z,10.13
2018-12-07T09:30:10.955Z,9.47
2018-12-07T09:32:39.480Z,9.73
2018-12-07T09:35:07.943Z,8.13
2018-12-07T09:37:36.328Z,7.13
2018-12-07T09:40:05.043Z,6.40
2018-12-07T09:42:33.423Z,6.60
2018-12-07T09:45:01.824Z,5.37
2018-12-07T09:47:30.258Z,5.43
2018-12-07T09:49:58.636Z,5.60
2018-12-07T09:52:27.016Z,5.20
2018-12-07T09:54:55.447Z,6.13
2018-12-07T09:57:23.919Z,4.27
2018-12-07T09:59:52.311Z,5.33
2018-12-07T10:02:20.679Z,5.03
2018-12-07T10:04:49.131Z,5.07
2018-12-07T10:07:17.601Z,4.80
2018-12-07T10:09:45.994Z,4.73
2018-12-07T10:12:14.468Z,5.10
2018-12-07T10:14:42.871Z,5.03
2018-12-07T10:17:11.246Z,4.60
2018-12-07T10:19:39.634Z,5.93
2018-12-07T10:22:08.140Z,4.90
2018-12-07T10:24:36.632Z,5.37
2018-12-07T10:27:07.232Z,4.57
2018-12-07T10:29:35.736Z,5.50
2018-12-07T10:32:04.354Z,5.27
2018-12-07T10:34:32.772Z,4.93
2018-12-07T10:37:01.151Z,5.37
2018-12-07T10:39:29.712Z,5.30
2018-12-07T10:41:59.840Z,5.33
2018-12-07T10:44:28.517Z,6.23
2018-12-07T10:46:57.023Z,5.73
2018-12-07T10:49:25.463Z,5.50
2018-12-07T10:51:53.867Z,5.07
2018-12-07T10:54:22.317Z,5.10
2018-12-07T10:56:50.830Z,5.23
2018-12-07T10:59:19.278Z,6.17
2018-12-07T11:01:53.137Z,6.57
2018-12-07T11:04:26.972Z,5.13
2018-12-07T11:07:00.640Z,5.30
2018-12-07T11:09:34.150Z,5.27
2018-12-07T11:12:08.987Z,5.13
2018-12-07T11:14:42.758Z,5.83
2018-12-07T11:17:16.576Z,6.83
2018-12-07T11:19:50.451Z,6.87
2018-12-07T11:22:24.169Z,4.33
2018-12-07T11:24:58.037Z,5.70
2018-12-07T11:27:32.052Z,6.20
2018-12-07T11:30:06.479Z,6.73
2018-12-07T11:32:39.323Z,6.33
2018-12-07T11:35:11.858Z,5.43
2018-12-07T11:37:40.312Z,5.37
2018-12-07T11:40:09.005Z,6.27
2018-12-07T11:42:37.395Z,6.40
2018-12-07T11:45:05.980Z,5.43
2018-12-07T11:47:34.521Z,5.33
2018-12-07T11:50:03.011Z,6.43
2018-12-07T11:52:31.380Z,5.80
2018-12-07T11:54:59.764Z,5.17
2018-12-07T11:57:28.144Z,5.07
2018-12-07T11:59:56.593Z,6.70
2018-12-07T12:02:26.486Z,5.53
2018-12-07T12:04:55.147Z,5.07
2018-12-07T12:07:23.517Z,5.83
2018-12-07T12:09:51.908Z,5.87
2018-12-07T12:12:20.297Z,4.47
2018-12-07T12:14:48.673Z,5.00
2018-12-07T12:17:17.039Z,5.60
2018-12-07T12:19:45.403Z,5.17
2018-12-07T12:22:13.840Z,5.20
2018-12-07T12:24:42.241Z,4.50
2018-12-07T12:27:10.626Z,5.30
2018-12-07T12:29:39.000Z,4.37
2018-12-07T12:32:07.350Z,6.10
2018-12-07T12:34:35.820Z,6.53
2018-12-07T12:37:04.301Z,6.00
2018-12-07T12:39:32.708Z,6.20
2018-12-07T12:42:01.064Z,7.40
2018-12-07T12:44:29.420Z,8.63
2018-12-07T12:46:57.843Z,9.20
2018-12-07T12:49:27.970Z,10.67
2018-12-07T12:51:57.330Z,10.30
2018-12-07T12:54:26.035Z,11.53
2018-12-07T12:56:54.604Z,10.80
2018-12-07T12:59:22.997Z,10.57
2018-12-07T13:01:51.463Z,12.57
2018-12-07T13:04:19.940Z,12.90
2018-12-07T13:06:48.459Z,12.63
2018-12-07T13:09:17.021Z,11.47
2018-12-07T13:11:45.610Z,13.77
2018-12-07T13:14:14.170Z,12.63
2018-12-07T13:16:42.669Z,13.13
2018-12-07T13:19:11.116Z,12.43
2018-12-07T13:21:39.520Z,9.07
2018-12-07T13:24:08.032Z,10.30
2018-12-07T13:26:36.579Z,11.67
2018-12-07T13:29:05.111Z,10.23
2018-12-07T13:31:33.607Z,9.93
2018-12-07T13:34:02.261Z,10.50
2018-12-07T13:36:31.192Z,10.83
2018-12-07T13:38:59.634Z,9.87
2018-12-07T13:41:28.048Z,8.23
2018-12-07T13:43:57.571Z,7.77
2018-12-07T13:46:26.436Z,9.67
2018-12-07T13:48:55.549Z,9.87
2018-12-07T13:51:24.247Z,9.23
2018-12-07T13:53:52.842Z,11.60
2018-12-07T13:56:21.433Z,12.07
2018-12-07T13:58:50.300Z,10.60
2018-12-07T14:01:19.125Z,10.00
2018-12-07T14:03:47.919Z,9.70
2018-12-07T14:06:16.454Z,10.43
2018-12-07T14:08:51.853Z,9.47
2018-12-07T14:11:20.424Z,10.30
2018-12-07T14:13:49.104Z,10.53
2018-12-07T14:16:17.720Z,11.07
2018-12-07T14:18:46.522Z,11.50
2018-12-07T14:21:15.146Z,12.03
2018-12-07T14:23:43.690Z,11.63
2018-12-07T14:26:12.247Z,12.50
2018-12-07T14:28:40.675Z,12.80
2018-12-07T14:31:09.343Z,13.57
2018-12-07T14:33:37.931Z,14.43
2018-12-07T14:36:06.306Z,14.90
2018-12-07T14:38:34.701Z,13.20
2018-12-07T14:41:03.414Z,14.73
2018-12-07T14:43:31.946Z,14.33
2018-12-07T14:46:00.482Z,13.90
2018-12-07T14:48:28.960Z,14.30
2018-12-07T14:50:57.463Z,14.53
2018-12-07T14:53:25.884Z,15.20
2018-12-07T14:55:54.391Z,15.47
2018-12-07T14:58:22.908Z,16.43
2018-12-07T15:00:51.441Z,13.00
2018-12-07T15:03:19.987Z,15.03
2018-12-07T15:05:50.303Z,13.77
2018-12-07T15:08:19.013Z,16.13
2018-12-07T15:10:47.544Z,14.67
2018-12-07T15:13:16.161Z,14.97
2018-12-07T15:15:44.579Z,16.07
2018-12-07T15:18:13.081Z,15.53
2018-12-07T15:20:41.676Z,17.30
2018-12-07T15:23:10.282Z,16.77
2018-12-07T15:25:38.800Z,17.70
2018-12-07T15:28:07.562Z,19.37
2018-12-07T15:30:36.124Z,19.90
2018-12-07T15:33:04.669Z,20.23
2018-12-07T15:35:33.214Z,22.03
2018-12-07T15:38:02.014Z,22.20
2018-12-07T15:40:30.671Z,24.63
2018-12-07T15:42:59.450Z,24.40
2018-12-07T15:45:27.956Z,27.13
2018-12-07T15:47:56.398Z,27.77
2018-12-07T15:50:25.440Z,30.27
2018-12-07T15:52:54.338Z,31.73
2018-12-07T15:55:22.905Z,31.30
2018-12-07T15:57:51.684Z,34.57
2018-12-07T16:00:20.197Z,35.57
2018-12-07T16:02:48.762Z,37.07
2018-12-07T16:05:17.203Z,37.47
2018-12-07T16:07:45.792Z,39.27
2018-12-07T16:10:14.308Z,39.63
2018-12-07T16:12:42.736Z,40.83
2018-12-07T16:15:11.361Z,42.03
2018-12-07T16:17:39.917Z,40.00
2018-12-07T16:20:12.533Z,41.47
2018-12-07T16:22:41.050Z,42.57
2018-12-07T16:25:09.552Z,39.33
2018-12-07T16:27:37.926Z,41.30
2018-12-07T16:30:08.521Z,38.27
2018-12-07T16:32:37.247Z,34.33
2018-12-07T16:35:06.519Z,35.93
2018-12-07T16:37:35.157Z,36.17
2018-12-07T16:40:04.653Z,33.47
2018-12-07T16:42:33.129Z,33.13
2018-12-07T16:45:01.744Z,32.47
2018-12-07T16:47:30.519Z,35.43
2018-12-07T16:49:59.129Z,31.47
2018-12-07T16:52:27.614Z,30.50
2018-12-07T16:54:56.061Z,31.80
2018-12-07T16:57:24.744Z,27.80
2018-12-07T16:59:53.405Z,29.00
2018-12-07T17:02:21.843Z,28.33
2018-12-07T17:04:50.319Z,24.93
2018-12-07T17:07:18.839Z,25.20
2018-12-07T17:09:47.440Z,25.80
2018-12-07T17:12:15.873Z,24.27
2018-12-07T17:14:44.574Z,23.63
2018-12-07T17:17:13.039Z,27.33
2018-12-07T17:19:41.496Z,23.00
2018-12-07T17:22:10.035Z,24.53
2018-12-07T17:24:38.673Z,21.63
2018-12-07T17:27:07.130Z,23.30
2018-12-07T17:29:35.620Z,21.37
2018-12-07T17:32:04.385Z,22.30
2018-12-07T17:34:32.870Z,18.80
2018-12-07T17:37:01.513Z,16.57
2018-12-07T17:39:30.105Z,21.43
2018-12-07T17:41:58.722Z,19.70
2018-12-07T17:44:27.321Z,19.23
2018-12-07T17:46:55.893Z,16.30
2018-12-07T17:49:24.621Z,16.57
2018-12-07T17:51:53.147Z,16.07
2018-12-07T17:54:21.729Z,16.37
2018-12-07T17:56:50.367Z,14.10
2018-12-07T17:59:18.963Z,15.07
2018-12-07T18:01:47.415Z,16.67
2018-12-07T18:04:15.887Z,15.80
2018-12-07T18:06:44.350Z,15.03
2018-12-07T18:09:12.870Z,14.87
2018-12-07T18:11:41.538Z,15.93
2018-12-07T18:14:10.896Z,15.93
2018-12-07T18:16:39.389Z,15.00
2018-12-07T18:19:07.846Z,13.23
2018-12-07T18:21:36.426Z,14.70
2018-12-07T18:24:05.195Z,15.90
2018-12-07T18:26:33.874Z,15.60
2018-12-07T18:29:02.510Z,14.70
2018-12-07T18:31:30.938Z,14.80
2018-12-07T18:33:59.510Z,14.63
2018-12-07T18:36:28.118Z,14.57
2018-12-07T18:38:56.556Z,16.30
2018-12-07T18:41:25.112Z,15.67
2018-12-07T18:43:53.735Z,17.23
2018-12-07T18:46:22.320Z,14.83
2018-12-07T18:48:51.379Z,17.40
2018-12-07T18:51:19.952Z,18.47
2018-12-07T18:53:48.804Z,17.43
2018-12-07T18:56:18.230Z,15.33
2018-12-07T18:58:47.097Z,18.67
2018-12-07T19:01:15.857Z,18.40
2018-12-07T19:03:45.232Z,19.17
2018-12-07T19:06:15.083Z,17.57
2018-12-07T19:08:44.598Z,18.20
2018-12-07T19:11:14.022Z,16.60
2018-12-07T19:13:43.998Z,15.80
2018-12-07T19:16:13.056Z,12.03
2018-12-07T19:18:42.589Z,15.97
2018-12-07T19:21:12.271Z,17.70
2018-12-07T19:23:41.096Z,17.43
2018-12-07T19:26:10.109Z,15.67
2018-12-07T19:28:38.992Z,17.47
2018-12-07T19:31:08.175Z,18.07
2018-12-07T19:33:36.846Z,19.63
2018-12-07T19:36:06.407Z,15.57
2018-12-07T19:38:35.499Z,20.27
2018-12-07T19:41:04.587Z,19.07
2018-12-07T19:43:33.179Z,17.40
2018-12-07T19:46:01.892Z,19.07
2018-12-07T19:48:30.475Z,20.73
2018-12-07T19:51:04.000Z,19.37
2018-12-07T19:53:33.627Z,18.47
2018-12-07T19:56:03.016Z,16.37
2018-12-07T19:58:32.478Z,18.47
2018-12-07T20:01:02.356Z,17.93
2018-12-07T20:03:31.605Z,16.90
2018-12-07T20:06:00.710Z,14.50
2018-12-07T20:08:29.939Z,2.50
2018-12-07T20:10:58.780Z,1.20
2018-12-07T20:13:28.331Z,0.80
2018-12-07T20:15:57.259Z,1.30
2018-12-07T20:18:26.554Z,1.60
2018-12-07T20:20:55.716Z,1.87
2018-12-07T20:23:25.004Z,2.07
2018-12-07T20:25:54.750Z,2.23
2018-12-07T20:28:23.271Z,3.20
2018-12-07T20:30:51.927Z,2.40
2018-12-07T20:33:20.465Z,2.80
2018-12-07T20:35:48.876Z,2.03
2018-12-07T20:38:17.319Z,2.30
2018-12-07T20:40:45.700Z,1.90
2018-12-07T20:43:14.052Z,2.37
2018-12-07T20:45:42.391Z,2.03
2018-12-07T20:48:10.847Z,2.47
2018-12-07T20:50:39.380Z,2.70
2018-12-07T20:53:07.806Z,2.47
2018-12-07T20:55:36.609Z,2.93
2018-12-07T20:58:05.140Z,2.57
2018-12-07T21:00:33.478Z,2.50
2018-12-07T21:03:02.042Z,1.60
2018-12-07T21:07:51.332Z,2.37
2018-12-07T21:10:39.474Z,1.93
2018-12-07T21:13:25.759Z,2.00
2018-12-07T21:15:54.192Z,3.20
2018-12-07T21:18:22.624Z,2.00
2018-12-07T21:20:51.173Z,2.00
2018-12-07T21:23:19.790Z,1.80
2018-12-07T21:25:48.251Z,2.20
2018-12-07T21:28:16.653Z,2.33
2018-12-07T21:30:56.389Z,2.30
2018-12-07T21:33:37.743Z,3.30
2018-12-07T21:36:39.890Z,2.33
2018-12-07T21:39:17.828Z,2.27
2018-12-07T21:41:46.159Z,2.10
2018-12-07T21:44:14.562Z,1.73
2018-12-07T21:46:43.649Z,2.77
2018-12-07T21:49:12.538Z,2.30
2018-12-07T21:52:53.381Z,2.30
2018-12-07T21:55:22.108Z,2.33
2018-12-07T21:57:50.576Z,2.33
2018-12-07T22:00:19.030Z,2.23
2018-12-07T22:02:47.441Z,2.17
2018-12-07T22:05:15.916Z,2.10
2018-12-07T22:07:44.462Z,3.13
2018-12-07T22:10:12.875Z,2.30
2018-12-07T22:12:41.502Z,1.80
2018-12-07T22:15:10.023Z,2.23
2018-12-07T22:17:38.503Z,2.13
2018-12-07T22:20:07.394Z,4.03
2018-12-07T22:22:36.881Z,2.30
2018-12-07T22:25:05.602Z,2.50
2018-12-07T22:27:33.985Z,2.80
2018-12-07T22:30:02.642Z,1.90
2018-12-07T22:32:31.238Z,2.10
2018-12-07T22:34:59.978Z,2.10
2018-12-07T22:37:28.467Z,2.20
2018-12-07T22:39:57.005Z,2.23
2018-12-07T22:42:25.506Z,2.07
2018-12-07T22:44:53.892Z,2.33
2018-12-07T22:47:22.245Z,2.30
2018-12-07T22:49:50.597Z,1.93
2018-12-07T22:52:18.955Z,2.90
2018-12-07T22:54:47.327Z,2.17
2018-12-07T22:57:15.808Z,2.07
2018-12-07T22:59:44.213Z,2.67
2018-12-07T23:02:12.640Z,2.67
2018-12-07T23:04:41.015Z,3.63
2018-12-07T23:07:09.362Z,3.60
2018-12-07T23:09:37.850Z,3.30
2018-12-07T23:12:06.411Z,3.60
2018-12-07T23:14:34.908Z,4.10
2018-12-07T23:17:03.511Z,3.77
2018-12-07T23:19:31.865Z,3.87
2018-12-07T23:22:00.243Z,3.57
2018-12-07T23:24:28.670Z,3.20
2018-12-07T23:26:57.028Z,3.67
2018-12-07T23:29:25.385Z,5.93
2018-12-07T23:31:53.856Z,3.37
2018-12-07T23:34:22.256Z,2.63
2018-12-07T23:36:50.635Z,2.80
2018-12-07T23:39:19.003Z,4.33
2018-12-07T23:41:47.487Z,4.13
2018-12-07T23:44:15.871Z,3.90
2018-12-07T23:46:44.336Z,3.03
2018-12-07T23:49:12.859Z,3.57
2018-12-07T23:51:41.219Z,3.47
2018-12-07T23:54:09.573Z,3.27
2018-12-07T23:56:38.063Z,3.50
2018-12-07T23:59:06.435Z,2.93
